LKE9753 ZPPP-ZULS
Flight info
| Callsign | LKE9753 |
|---|---|
| Flight time | 2h 6m |
| Altitude | 32100 |
| Route | GULOT W146 BUBSU W162 UPGED L888 PEXUN B213 IGELA W522 IGDAG |
| Aircraft | A320/M-SDE2E3FGILRWXY/LB2 |
Departure
| Time | 2026-04-28 08:02 |
|---|---|
| Airport | Kunming Changshui International Airport (ZPPP) |
Arrival
| Time | 2026-04-28 10:08 |
|---|---|
| Airport | Lhasa Gonggar International Airport (ZULS) |
| Time | Latitude | Longitude | Altitude | Speed | Heading |
|---|---|---|---|---|---|
| 2026-04-28 07:50 | 25.11470 | 102.93480 | 6900 ft | 0 kts | 219° |
| 2026-04-28 07:53 | 25.11471 | 102.93481 | 6900 ft | 2 kts | 219° |
| 2026-04-28 07:53 | 25.11491 | 102.93499 | 6900 ft | 4 kts | 222° |
| 2026-04-28 07:53 | 25.11511 | 102.93520 | 6900 ft | 4 kts | 229° |
| 2026-04-28 07:54 | 25.11527 | 102.93544 | 6900 ft | 4 kts | 248° |
| 2026-04-28 07:54 | 25.11529 | 102.93567 | 6900 ft | 2 kts | 308° |
| 2026-04-28 07:54 | 25.11526 | 102.93572 | 6900 ft | 0 kts | 309° |
| 2026-04-28 07:56 | 25.11530 | 102.93566 | 6900 ft | 2 kts | 309° |
| 2026-04-28 07:56 | 25.11548 | 102.93542 | 6900 ft | 6 kts | 310° |
| 2026-04-28 07:56 | 25.11579 | 102.93502 | 6900 ft | 9 kts | 313° |
| 2026-04-28 07:57 | 25.11624 | 102.93450 | 6901 ft | 9 kts | 312° |
| 2026-04-28 07:57 | 25.11667 | 102.93393 | 6901 ft | 11 kts | 309° |
| 2026-04-28 07:57 | 25.11731 | 102.93375 | 6901 ft | 9 kts | 25° |
| 2026-04-28 07:57 | 25.11791 | 102.93425 | 6901 ft | 14 kts | 38° |
| 2026-04-28 07:58 | 25.11882 | 102.93505 | 6900 ft | 20 kts | 38° |
| 2026-04-28 07:58 | 25.12002 | 102.93608 | 6900 ft | 23 kts | 38° |
| 2026-04-28 07:58 | 25.12128 | 102.93718 | 6899 ft | 25 kts | 38° |
| 2026-04-28 07:58 | 25.12269 | 102.93841 | 6899 ft | 27 kts | 38° |
| 2026-04-28 07:59 | 25.12420 | 102.93972 | 6898 ft | 28 kts | 38° |
| 2026-04-28 07:59 | 25.12573 | 102.94105 | 6897 ft | 28 kts | 38° |
| 2026-04-28 07:59 | 25.12729 | 102.94240 | 6896 ft | 29 kts | 38° |
| 2026-04-28 07:59 | 25.12844 | 102.94338 | 6896 ft | 10 kts | 30° |
| 2026-04-28 08:00 | 25.12903 | 102.94338 | 6896 ft | 8 kts | 328° |
| 2026-04-28 08:00 | 25.12942 | 102.94291 | 6896 ft | 10 kts | 308° |
| 2026-04-28 08:00 | 25.12985 | 102.94231 | 6895 ft | 11 kts | 307° |
| 2026-04-28 08:00 | 25.13022 | 102.94155 | 6894 ft | 12 kts | 276° |
| 2026-04-28 08:01 | 25.12981 | 102.94094 | 6894 ft | 5 kts | 218° |
| 2026-04-28 08:01 | 25.12935 | 102.94054 | 6894 ft | 16 kts | 218° |
| 2026-04-28 08:01 | 25.12663 | 102.93817 | 6898 ft | 83 kts | 218° |
| 2026-04-28 08:01 | 25.12051 | 102.93284 | 6899 ft | 139 kts | 218° |
| 2026-04-28 08:02 | 25.11167 | 102.92515 | 6921 ft | 182 kts | 219° |
| 2026-04-28 08:02 | 25.10159 | 102.91631 | 7642 ft | 182 kts | 222° |
| 2026-04-28 08:02 | 25.09340 | 102.90617 | 8580 ft | 174 kts | 233° |
| 2026-04-28 08:02 | 25.08615 | 102.89527 | 9022 ft | 182 kts | 237° |
| 2026-04-28 08:03 | 25.07862 | 102.88336 | 9305 ft | 196 kts | 236° |
| 2026-04-28 08:03 | 25.07038 | 102.87068 | 9539 ft | 212 kts | 236° |
| 2026-04-28 08:03 | 25.06135 | 102.85699 | 9714 ft | 229 kts | 235° |
| 2026-04-28 08:03 | 25.05145 | 102.84217 | 9955 ft | 250 kts | 234° |
| 2026-04-28 08:04 | 25.04096 | 102.82659 | 10496 ft | 255 kts | 235° |
| 2026-04-28 08:04 | 25.03025 | 102.81074 | 11128 ft | 259 kts | 235° |
| 2026-04-28 08:04 | 25.01943 | 102.79478 | 11801 ft | 262 kts | 235° |
| 2026-04-28 08:04 | 25.00844 | 102.77862 | 12445 ft | 265 kts | 236° |
| 2026-04-28 08:05 | 24.99732 | 102.76225 | 13090 ft | 268 kts | 236° |
| 2026-04-28 08:05 | 24.98605 | 102.74566 | 13754 ft | 271 kts | 236° |
| 2026-04-28 08:05 | 24.97565 | 102.72832 | 14319 ft | 272 kts | 251° |
| 2026-04-28 08:05 | 24.97374 | 102.70795 | 14867 ft | 272 kts | 282° |
| 2026-04-28 08:06 | 24.98055 | 102.68842 | 15433 ft | 276 kts | 296° |
| 2026-04-28 08:06 | 24.99049 | 102.67019 | 16013 ft | 279 kts | 301° |
| 2026-04-28 08:06 | 25.00153 | 102.65247 | 16596 ft | 282 kts | 302° |
| 2026-04-28 08:06 | 25.01279 | 102.63471 | 17170 ft | 284 kts | 302° |
| 2026-04-28 08:07 | 25.02401 | 102.61660 | 17679 ft | 290 kts | 301° |
| 2026-04-28 08:07 | 25.03562 | 102.59760 | 17799 ft | 308 kts | 301° |
| 2026-04-28 08:07 | 25.04786 | 102.57731 | 17928 ft | 325 kts | 301° |
| 2026-04-28 08:07 | 25.06027 | 102.55576 | 18049 ft | 340 kts | 295° |
| 2026-04-28 08:08 | 25.06813 | 102.53080 | 18188 ft | 352 kts | 278° |
| 2026-04-28 08:08 | 25.06864 | 102.50340 | 18303 ft | 366 kts | 262° |
| 2026-04-28 08:08 | 25.06092 | 102.47622 | 18508 ft | 377 kts | 245° |
| 2026-04-28 08:08 | 25.04863 | 102.45039 | 18870 ft | 382 kts | 243° |
| 2026-04-28 08:09 | 25.03621 | 102.42445 | 19292 ft | 384 kts | 244° |
| 2026-04-28 08:09 | 25.02377 | 102.39836 | 19716 ft | 387 kts | 244° |
| 2026-04-28 08:09 | 25.01123 | 102.37200 | 20151 ft | 389 kts | 244° |
| 2026-04-28 08:09 | 24.99862 | 102.34549 | 20578 ft | 392 kts | 244° |
| 2026-04-28 08:10 | 24.98592 | 102.31879 | 20998 ft | 394 kts | 244° |
| 2026-04-28 08:10 | 24.97314 | 102.29191 | 21409 ft | 397 kts | 244° |
| 2026-04-28 08:10 | 24.96028 | 102.26489 | 21792 ft | 400 kts | 244° |
| 2026-04-28 08:10 | 24.94731 | 102.23767 | 22181 ft | 403 kts | 244° |
| 2026-04-28 08:11 | 24.93425 | 102.21032 | 22571 ft | 405 kts | 244° |
| 2026-04-28 08:11 | 24.92104 | 102.18272 | 22968 ft | 408 kts | 244° |
| 2026-04-28 08:11 | 24.90773 | 102.15498 | 23336 ft | 411 kts | 244° |
| 2026-04-28 08:11 | 24.89432 | 102.12705 | 23686 ft | 413 kts | 244° |
| 2026-04-28 08:12 | 24.88088 | 102.09900 | 23993 ft | 415 kts | 244° |
| 2026-04-28 08:12 | 24.86741 | 102.07080 | 24310 ft | 417 kts | 244° |
| 2026-04-28 08:12 | 24.85387 | 102.04247 | 24624 ft | 419 kts | 244° |
| 2026-04-28 08:12 | 24.84025 | 102.01403 | 24934 ft | 421 kts | 244° |
| 2026-04-28 08:13 | 24.82655 | 101.98549 | 25247 ft | 422 kts | 244° |
| 2026-04-28 08:13 | 24.81279 | 101.95685 | 25520 ft | 424 kts | 244° |
| 2026-04-28 08:13 | 24.79894 | 101.92808 | 25786 ft | 426 kts | 243° |
| 2026-04-28 08:13 | 24.78503 | 101.89919 | 26105 ft | 428 kts | 243° |
| 2026-04-28 08:14 | 24.77111 | 101.87023 | 26412 ft | 429 kts | 243° |
| 2026-04-28 08:14 | 24.75710 | 101.84111 | 26717 ft | 431 kts | 243° |
| 2026-04-28 08:14 | 24.74304 | 101.81195 | 27014 ft | 433 kts | 243° |
| 2026-04-28 08:14 | 24.72886 | 101.78258 | 27296 ft | 434 kts | 243° |
| 2026-04-28 08:15 | 24.71466 | 101.75319 | 27563 ft | 436 kts | 243° |
| 2026-04-28 08:15 | 24.70040 | 101.72366 | 27830 ft | 438 kts | 243° |
| 2026-04-28 08:15 | 24.68609 | 101.69404 | 28106 ft | 440 kts | 243° |
| 2026-04-28 08:15 | 24.67170 | 101.66424 | 28364 ft | 442 kts | 243° |
| 2026-04-28 08:16 | 24.65728 | 101.63437 | 28616 ft | 443 kts | 243° |
| 2026-04-28 08:16 | 24.64506 | 101.60328 | 28870 ft | 444 kts | 252° |
| 2026-04-28 08:16 | 24.63816 | 101.57019 | 29132 ft | 446 kts | 262° |
| 2026-04-28 08:16 | 24.63682 | 101.53609 | 29395 ft | 448 kts | 272° |
| 2026-04-28 08:17 | 24.64127 | 101.50219 | 29779 ft | 449 kts | 282° |
| 2026-04-28 08:17 | 24.65023 | 101.46928 | 30111 ft | 450 kts | 285° |
| 2026-04-28 08:17 | 24.65958 | 101.43649 | 30463 ft | 448 kts | 285° |
| 2026-04-28 08:17 | 24.66885 | 101.40387 | 30835 ft | 446 kts | 285° |
| 2026-04-28 08:18 | 24.67804 | 101.37134 | 31166 ft | 445 kts | 285° |
| 2026-04-28 08:18 | 24.68715 | 101.33893 | 31495 ft | 443 kts | 284° |
| 2026-04-28 08:18 | 24.69620 | 101.30668 | 31781 ft | 441 kts | 285° |
| 2026-04-28 08:18 | 24.70524 | 101.27448 | 31901 ft | 439 kts | 285° |
| 2026-04-28 08:19 | 24.72322 | 101.21053 | 31934 ft | 437 kts | 285° |
| 2026-04-28 08:19 | 24.74107 | 101.14676 | 31936 ft | 436 kts | 285° |
| 2026-04-28 08:20 | 24.75893 | 101.08296 | 31942 ft | 436 kts | 285° |
| 2026-04-28 08:20 | 24.77673 | 101.01915 | 31944 ft | 436 kts | 285° |
| 2026-04-28 08:21 | 24.79461 | 100.95530 | 31954 ft | 436 kts | 285° |
| 2026-04-28 08:21 | 24.81238 | 100.89160 | 31958 ft | 435 kts | 285° |
| 2026-04-28 08:22 | 24.83007 | 100.82783 | 31956 ft | 435 kts | 285° |
| 2026-04-28 08:22 | 24.84777 | 100.76412 | 31955 ft | 435 kts | 285° |
| 2026-04-28 08:23 | 24.86545 | 100.70052 | 31952 ft | 434 kts | 284° |
| 2026-04-28 08:23 | 24.88304 | 100.63683 | 31954 ft | 434 kts | 285° |
| 2026-04-28 08:24 | 24.90064 | 100.57317 | 31954 ft | 434 kts | 285° |
| 2026-04-28 08:24 | 24.91817 | 100.50953 | 31965 ft | 434 kts | 285° |
| 2026-04-28 08:25 | 24.93562 | 100.44604 | 31963 ft | 433 kts | 285° |
| 2026-04-28 08:26 | 24.95886 | 100.36118 | 31956 ft | 432 kts | 284° |
| 2026-04-28 08:26 | 24.98065 | 100.29971 | 31950 ft | 437 kts | 302° |
| 2026-04-28 08:26 | 25.00111 | 100.27473 | 31943 ft | 444 kts | 317° |
| 2026-04-28 08:27 | 25.02759 | 100.25690 | 31938 ft | 452 kts | 333° |
| 2026-04-28 08:27 | 25.05829 | 100.24799 | 31934 ft | 463 kts | 350° |
| 2026-04-28 08:27 | 25.09073 | 100.24903 | 31932 ft | 471 kts | 2° |
| 2026-04-28 08:28 | 25.15546 | 100.24921 | 31918 ft | 461 kts | 346° |
| 2026-04-28 08:28 | 25.21734 | 100.23269 | 31915 ft | 457 kts | 340° |
| 2026-04-28 08:29 | 25.27890 | 100.21437 | 31917 ft | 458 kts | 340° |
| 2026-04-28 08:29 | 25.34049 | 100.19619 | 31919 ft | 458 kts | 340° |
| 2026-04-28 08:30 | 25.40215 | 100.17798 | 31925 ft | 459 kts | 340° |
| 2026-04-28 08:30 | 25.46373 | 100.15969 | 31927 ft | 458 kts | 340° |
| 2026-04-28 08:31 | 25.52535 | 100.14142 | 31925 ft | 458 kts | 340° |
| 2026-04-28 08:31 | 25.58697 | 100.12317 | 31925 ft | 458 kts | 340° |
| 2026-04-28 08:32 | 25.64858 | 100.10482 | 31930 ft | 459 kts | 340° |
| 2026-04-28 08:32 | 25.71013 | 100.08648 | 31919 ft | 457 kts | 340° |
| 2026-04-28 08:33 | 25.77160 | 100.06819 | 31919 ft | 458 kts | 340° |
| 2026-04-28 08:33 | 25.83325 | 100.04981 | 31919 ft | 459 kts | 340° |
| 2026-04-28 08:34 | 25.89497 | 100.03146 | 31918 ft | 459 kts | 340° |
| 2026-04-28 08:34 | 25.95666 | 100.01303 | 31913 ft | 459 kts | 339° |
| 2026-04-28 08:35 | 26.01974 | 100.00006 | 31919 ft | 469 kts | 353° |
| 2026-04-28 08:35 | 26.08520 | 100.00002 | 31902 ft | 470 kts | 355° |
| 2026-04-28 08:36 | 26.15064 | 99.99999 | 31915 ft | 471 kts | 354° |
| 2026-04-28 08:36 | 26.21619 | 99.99992 | 31918 ft | 471 kts | 354° |
| 2026-04-28 08:37 | 26.28176 | 99.99996 | 31924 ft | 471 kts | 354° |
| 2026-04-28 08:37 | 26.34728 | 99.99999 | 31932 ft | 470 kts | 354° |
| 2026-04-28 08:38 | 26.41272 | 99.99998 | 31934 ft | 470 kts | 354° |
| 2026-04-28 08:38 | 26.47811 | 100.00001 | 31939 ft | 470 kts | 354° |
| 2026-04-28 08:39 | 26.54350 | 100.00003 | 31942 ft | 470 kts | 354° |
| 2026-04-28 08:39 | 26.60882 | 100.00001 | 31945 ft | 469 kts | 354° |
| 2026-04-28 08:40 | 26.67402 | 100.00000 | 31944 ft | 469 kts | 354° |
| 2026-04-28 08:40 | 26.73922 | 99.99994 | 31947 ft | 469 kts | 354° |
| 2026-04-28 08:41 | 26.80439 | 99.99997 | 31948 ft | 468 kts | 354° |
| 2026-04-28 08:41 | 26.86937 | 100.00003 | 31942 ft | 467 kts | 354° |
| 2026-04-28 08:42 | 26.93434 | 100.00006 | 31955 ft | 467 kts | 355° |
| 2026-04-28 08:42 | 26.99933 | 100.00000 | 31962 ft | 467 kts | 355° |
| 2026-04-28 08:43 | 27.06412 | 99.99995 | 31955 ft | 465 kts | 355° |
| 2026-04-28 08:43 | 27.12880 | 99.99997 | 31963 ft | 464 kts | 355° |
| 2026-04-28 08:44 | 27.19342 | 99.99999 | 31965 ft | 464 kts | 355° |
| 2026-04-28 08:44 | 27.25804 | 99.99996 | 31962 ft | 464 kts | 355° |
| 2026-04-28 08:45 | 27.32268 | 99.99995 | 31959 ft | 465 kts | 356° |
| 2026-04-28 08:45 | 27.38741 | 100.00001 | 31964 ft | 465 kts | 356° |
| 2026-04-28 08:46 | 27.45211 | 99.99999 | 31963 ft | 464 kts | 356° |
| 2026-04-28 08:46 | 27.51672 | 99.99996 | 31961 ft | 464 kts | 356° |
| 2026-04-28 08:47 | 27.58131 | 99.99994 | 31962 ft | 464 kts | 356° |
| 2026-04-28 08:47 | 27.64597 | 100.00000 | 31965 ft | 465 kts | 356° |
| 2026-04-28 08:48 | 27.71069 | 100.00006 | 31971 ft | 465 kts | 356° |
| 2026-04-28 08:48 | 27.77547 | 99.99999 | 31980 ft | 465 kts | 356° |
| 2026-04-28 08:49 | 27.84028 | 99.99997 | 31990 ft | 466 kts | 357° |
| 2026-04-28 08:49 | 27.90501 | 100.00002 | 31998 ft | 465 kts | 357° |
| 2026-04-28 08:50 | 27.96984 | 100.00002 | 32000 ft | 466 kts | 357° |
| 2026-04-28 08:50 | 28.03470 | 100.00001 | 32013 ft | 467 kts | 358° |
| 2026-04-28 08:51 | 28.09965 | 100.00001 | 32018 ft | 466 kts | 358° |
| 2026-04-28 08:51 | 28.16459 | 99.99999 | 32030 ft | 467 kts | 358° |
| 2026-04-28 08:52 | 28.22956 | 99.99997 | 32042 ft | 467 kts | 358° |
| 2026-04-28 08:52 | 28.29465 | 99.99995 | 32048 ft | 468 kts | 358° |
| 2026-04-28 08:53 | 28.35974 | 99.99994 | 32055 ft | 468 kts | 358° |
| 2026-04-28 08:53 | 28.42498 | 100.00001 | 32066 ft | 469 kts | 358° |
| 2026-04-28 08:54 | 28.49024 | 100.00000 | 32073 ft | 469 kts | 358° |
| 2026-04-28 08:54 | 28.55548 | 99.99994 | 32081 ft | 469 kts | 358° |
| 2026-04-28 08:55 | 28.62068 | 99.99998 | 32089 ft | 468 kts | 357° |
| 2026-04-28 08:55 | 28.68589 | 100.00004 | 32094 ft | 468 kts | 357° |
| 2026-04-28 08:56 | 28.75102 | 99.99998 | 32098 ft | 468 kts | 357° |
| 2026-04-28 08:56 | 28.81621 | 99.99998 | 32101 ft | 469 kts | 357° |
| 2026-04-28 08:57 | 28.88151 | 99.99998 | 32097 ft | 469 kts | 357° |
| 2026-04-28 08:57 | 28.94672 | 100.00003 | 32099 ft | 469 kts | 357° |
| 2026-04-28 08:58 | 29.01204 | 100.00001 | 32091 ft | 469 kts | 357° |
| 2026-04-28 08:58 | 29.07746 | 99.99996 | 32105 ft | 471 kts | 357° |
| 2026-04-28 08:59 | 29.14299 | 99.99996 | 32110 ft | 471 kts | 357° |
| 2026-04-28 08:59 | 29.20862 | 99.99995 | 32104 ft | 472 kts | 357° |
| 2026-04-28 09:00 | 29.27428 | 99.99991 | 32100 ft | 472 kts | 357° |
| 2026-04-28 09:00 | 29.34050 | 99.99990 | 32103 ft | 473 kts | 357° |
| 2026-04-28 09:01 | 29.40641 | 99.99994 | 32100 ft | 474 kts | 357° |
| 2026-04-28 09:01 | 29.46123 | 99.99999 | 32103 ft | 474 kts | 357° |
| 2026-04-28 09:02 | 29.52726 | 100.00002 | 32098 ft | 475 kts | 357° |
| 2026-04-28 09:02 | 29.59335 | 99.99996 | 32095 ft | 475 kts | 357° |
| 2026-04-28 09:03 | 29.65946 | 99.99992 | 32092 ft | 475 kts | 357° |
| 2026-04-28 09:03 | 29.72570 | 100.00001 | 32094 ft | 476 kts | 357° |
| 2026-04-28 09:04 | 29.79197 | 100.00005 | 32096 ft | 476 kts | 356° |
| 2026-04-28 09:04 | 29.85825 | 99.99999 | 32095 ft | 477 kts | 356° |
| 2026-04-28 09:05 | 29.92462 | 99.99993 | 32099 ft | 477 kts | 356° |
| 2026-04-28 09:05 | 29.99102 | 100.00000 | 32099 ft | 477 kts | 356° |
| 2026-04-28 09:06 | 30.05746 | 99.99997 | 32100 ft | 478 kts | 356° |
| 2026-04-28 09:06 | 30.12397 | 99.99998 | 32100 ft | 478 kts | 356° |
| 2026-04-28 09:07 | 30.19054 | 100.00003 | 32107 ft | 479 kts | 356° |
| 2026-04-28 09:07 | 30.25720 | 100.00001 | 32105 ft | 479 kts | 356° |
| 2026-04-28 09:08 | 30.32391 | 99.99997 | 32104 ft | 479 kts | 356° |
| 2026-04-28 09:08 | 30.39061 | 99.99995 | 32104 ft | 479 kts | 356° |
| 2026-04-28 09:09 | 30.45730 | 99.99993 | 32094 ft | 479 kts | 356° |
| 2026-04-28 09:09 | 30.52402 | 99.99993 | 32090 ft | 480 kts | 356° |
| 2026-04-28 09:10 | 30.59083 | 99.99997 | 32085 ft | 480 kts | 355° |
| 2026-04-28 09:10 | 30.65775 | 99.99997 | 32083 ft | 481 kts | 356° |
| 2026-04-28 09:11 | 30.72468 | 99.99995 | 32072 ft | 481 kts | 355° |
| 2026-04-28 09:11 | 30.79153 | 99.99943 | 32069 ft | 478 kts | 350° |
| 2026-04-28 09:11 | 30.82319 | 99.99041 | 32074 ft | 462 kts | 329° |
| 2026-04-28 09:12 | 30.84920 | 99.96996 | 32073 ft | 445 kts | 308° |
| 2026-04-28 09:12 | 30.86790 | 99.94189 | 32080 ft | 436 kts | 297° |
| 2026-04-28 09:12 | 30.88320 | 99.91153 | 32079 ft | 435 kts | 295° |
| 2026-04-28 09:13 | 30.91341 | 99.84992 | 32080 ft | 436 kts | 295° |
| 2026-04-28 09:13 | 30.94142 | 99.78765 | 32089 ft | 430 kts | 284° |
| 2026-04-28 09:13 | 30.94833 | 99.75408 | 32090 ft | 423 kts | 273° |
| 2026-04-28 09:14 | 30.95095 | 99.72049 | 32098 ft | 422 kts | 271° |
| 2026-04-28 09:14 | 30.95621 | 99.65197 | 32096 ft | 422 kts | 272° |
| 2026-04-28 09:15 | 30.96159 | 99.58385 | 32095 ft | 422 kts | 272° |
| 2026-04-28 09:15 | 30.96689 | 99.51570 | 32096 ft | 422 kts | 272° |
| 2026-04-28 09:16 | 30.97209 | 99.44757 | 32088 ft | 423 kts | 272° |
| 2026-04-28 09:16 | 30.97718 | 99.37942 | 32089 ft | 422 kts | 272° |
| 2026-04-28 09:17 | 30.98223 | 99.31109 | 32081 ft | 423 kts | 272° |
| 2026-04-28 09:17 | 30.98732 | 99.24275 | 32075 ft | 423 kts | 273° |
| 2026-04-28 09:18 | 30.99237 | 99.17438 | 32069 ft | 424 kts | 273° |
| 2026-04-28 09:18 | 30.99740 | 99.10586 | 32065 ft | 425 kts | 273° |
| 2026-04-28 09:19 | 31.00240 | 99.03724 | 32056 ft | 425 kts | 273° |
| 2026-04-28 09:19 | 31.00735 | 98.96868 | 32051 ft | 425 kts | 274° |
| 2026-04-28 09:20 | 31.01222 | 98.89992 | 32040 ft | 426 kts | 274° |
| 2026-04-28 09:20 | 31.01711 | 98.83111 | 32039 ft | 426 kts | 274° |
| 2026-04-28 09:21 | 31.02210 | 98.76224 | 32032 ft | 426 kts | 274° |
| 2026-04-28 09:21 | 31.02700 | 98.69337 | 32034 ft | 427 kts | 274° |
| 2026-04-28 09:22 | 31.03194 | 98.62447 | 32028 ft | 426 kts | 275° |
| 2026-04-28 09:22 | 31.03773 | 98.55568 | 32032 ft | 426 kts | 276° |
| 2026-04-28 09:23 | 31.04374 | 98.48695 | 32027 ft | 426 kts | 276° |
| 2026-04-28 09:23 | 31.04951 | 98.41816 | 32026 ft | 426 kts | 276° |
| 2026-04-28 09:24 | 31.05511 | 98.34938 | 32028 ft | 426 kts | 276° |
| 2026-04-28 09:24 | 31.06064 | 98.28054 | 32033 ft | 426 kts | 276° |
| 2026-04-28 09:25 | 31.06616 | 98.21178 | 32038 ft | 426 kts | 276° |
| 2026-04-28 09:25 | 31.07170 | 98.14303 | 32038 ft | 425 kts | 276° |
| 2026-04-28 09:26 | 31.07714 | 98.07431 | 32043 ft | 425 kts | 276° |
| 2026-04-28 09:26 | 31.08269 | 98.00559 | 32049 ft | 425 kts | 276° |
| 2026-04-28 09:27 | 31.09110 | 97.90262 | 32058 ft | 425 kts | 276° |
| 2026-04-28 09:27 | 31.09656 | 97.83392 | 32060 ft | 425 kts | 276° |
| 2026-04-28 09:28 | 31.10193 | 97.76518 | 32063 ft | 425 kts | 276° |
| 2026-04-28 09:28 | 31.10729 | 97.69643 | 32059 ft | 425 kts | 276° |
| 2026-04-28 09:29 | 31.11259 | 97.62772 | 32059 ft | 425 kts | 276° |
| 2026-04-28 09:29 | 31.11789 | 97.55903 | 32054 ft | 425 kts | 276° |
| 2026-04-28 09:30 | 31.12314 | 97.49026 | 32044 ft | 426 kts | 276° |
| 2026-04-28 09:30 | 31.12835 | 97.42148 | 32039 ft | 426 kts | 276° |
| 2026-04-28 09:31 | 31.13354 | 97.35262 | 32036 ft | 426 kts | 276° |
| 2026-04-28 09:31 | 31.13872 | 97.28386 | 32030 ft | 425 kts | 276° |
| 2026-04-28 09:32 | 31.14385 | 97.21508 | 32031 ft | 425 kts | 276° |
| 2026-04-28 09:32 | 31.14021 | 97.14613 | 32036 ft | 430 kts | 259° |
| 2026-04-28 09:33 | 31.12570 | 97.07839 | 32034 ft | 430 kts | 259° |
| 2026-04-28 09:33 | 31.11124 | 97.01064 | 32034 ft | 431 kts | 258° |
| 2026-04-28 09:34 | 31.09665 | 96.94280 | 32037 ft | 431 kts | 258° |
| 2026-04-28 09:34 | 31.08206 | 96.87493 | 32043 ft | 431 kts | 258° |
| 2026-04-28 09:35 | 31.06748 | 96.80726 | 32046 ft | 431 kts | 258° |
| 2026-04-28 09:35 | 31.05276 | 96.73943 | 32048 ft | 431 kts | 258° |
| 2026-04-28 09:36 | 31.03803 | 96.67161 | 32049 ft | 432 kts | 258° |
| 2026-04-28 09:36 | 31.02330 | 96.60381 | 32057 ft | 431 kts | 258° |
| 2026-04-28 09:37 | 31.00852 | 96.53604 | 32049 ft | 432 kts | 259° |
| 2026-04-28 09:37 | 30.99368 | 96.46826 | 32045 ft | 431 kts | 259° |
| 2026-04-28 09:38 | 30.97884 | 96.40060 | 32045 ft | 431 kts | 259° |
| 2026-04-28 09:38 | 30.96448 | 96.33293 | 32037 ft | 430 kts | 259° |
| 2026-04-28 09:39 | 30.95030 | 96.26523 | 32033 ft | 430 kts | 259° |
| 2026-04-28 09:39 | 30.93603 | 96.19759 | 32031 ft | 430 kts | 259° |
| 2026-04-28 09:40 | 30.92161 | 96.13001 | 32025 ft | 430 kts | 259° |
| 2026-04-28 09:40 | 30.90716 | 96.06244 | 32018 ft | 430 kts | 259° |
| 2026-04-28 09:41 | 30.89508 | 96.00586 | 32019 ft | 430 kts | 259° |
| 2026-04-28 09:41 | 30.88061 | 95.93830 | 32017 ft | 430 kts | 259° |
| 2026-04-28 09:42 | 30.86604 | 95.87090 | 32014 ft | 430 kts | 259° |
| 2026-04-28 09:42 | 30.84769 | 95.78570 | 32012 ft | 430 kts | 259° |
| 2026-04-28 09:43 | 30.81909 | 95.65071 | 32015 ft | 430 kts | 260° |
| 2026-04-28 09:43 | 30.79150 | 95.51570 | 32019 ft | 429 kts | 260° |
| 2026-04-28 09:44 | 30.76331 | 95.38057 | 32042 ft | 429 kts | 260° |
| 2026-04-28 09:44 | 30.73511 | 95.24556 | 32069 ft | 430 kts | 260° |
| 2026-04-28 09:45 | 30.70675 | 95.11072 | 32081 ft | 429 kts | 260° |
| 2026-04-28 09:45 | 30.67836 | 94.97610 | 32082 ft | 429 kts | 260° |
| 2026-04-28 09:46 | 30.64977 | 94.84164 | 32093 ft | 429 kts | 260° |
| 2026-04-28 09:46 | 30.62103 | 94.70721 | 32093 ft | 429 kts | 260° |
| 2026-04-28 09:47 | 30.59227 | 94.57309 | 32092 ft | 428 kts | 260° |
| 2026-04-28 09:47 | 30.56328 | 94.43904 | 32114 ft | 428 kts | 259° |
| 2026-04-28 09:48 | 30.53419 | 94.30542 | 32115 ft | 426 kts | 259° |
| 2026-04-28 09:48 | 30.50514 | 94.17211 | 32123 ft | 426 kts | 260° |
| 2026-04-28 09:49 | 30.47784 | 94.03906 | 32139 ft | 424 kts | 261° |
| 2026-04-28 09:49 | 30.45021 | 93.90637 | 32146 ft | 423 kts | 260° |
| 2026-04-28 09:50 | 30.42240 | 93.77423 | 32125 ft | 422 kts | 260° |
| 2026-04-28 09:50 | 30.39474 | 93.64316 | 32087 ft | 418 kts | 260° |
| 2026-04-28 09:51 | 30.35920 | 93.51414 | 32066 ft | 423 kts | 254° |
| 2026-04-28 09:51 | 30.31962 | 93.38641 | 32038 ft | 421 kts | 254° |
| 2026-04-28 09:52 | 30.27994 | 93.25893 | 31994 ft | 421 kts | 254° |
| 2026-04-28 09:52 | 30.24012 | 93.13131 | 31974 ft | 422 kts | 254° |
| 2026-04-28 09:53 | 30.20028 | 93.00362 | 31955 ft | 422 kts | 253° |
| 2026-04-28 09:53 | 30.16025 | 92.87618 | 31956 ft | 423 kts | 253° |
| 2026-04-28 09:54 | 30.12006 | 92.74838 | 31953 ft | 423 kts | 253° |
| 2026-04-28 09:54 | 30.07958 | 92.62101 | 31955 ft | 422 kts | 253° |
| 2026-04-28 09:55 | 30.03963 | 92.49351 | 31953 ft | 422 kts | 254° |
| 2026-04-28 09:55 | 30.00004 | 92.36584 | 31947 ft | 423 kts | 253° |
| 2026-04-28 09:56 | 29.96013 | 92.23825 | 31926 ft | 423 kts | 253° |
| 2026-04-28 09:56 | 29.92004 | 92.11050 | 31908 ft | 424 kts | 253° |
| 2026-04-28 09:57 | 29.87975 | 91.98294 | 31891 ft | 424 kts | 253° |
| 2026-04-28 09:57 | 29.83929 | 91.85526 | 31875 ft | 424 kts | 253° |
| 2026-04-28 09:58 | 29.79912 | 91.72740 | 31865 ft | 424 kts | 253° |
| 2026-04-28 09:58 | 29.75926 | 91.59914 | 31650 ft | 429 kts | 253° |
| 2026-04-28 09:59 | 29.73883 | 91.53392 | 29820 ft | 441 kts | 252° |
| 2026-04-28 09:59 | 29.71784 | 91.46729 | 28089 ft | 439 kts | 252° |
| 2026-04-28 09:59 | 29.69757 | 91.40282 | 27547 ft | 414 kts | 252° |
| 2026-04-28 09:59 | 29.67916 | 91.34423 | 27279 ft | 386 kts | 252° |
| 2026-04-28 10:00 | 29.66327 | 91.28742 | 26782 ft | 365 kts | 258° |
| 2026-04-28 10:00 | 29.65502 | 91.23020 | 25791 ft | 361 kts | 266° |
| 2026-04-28 10:00 | 29.65423 | 91.17269 | 24855 ft | 358 kts | 274° |
| 2026-04-28 10:00 | 29.65254 | 91.11595 | 23963 ft | 356 kts | 258° |
| 2026-04-28 10:01 | 29.63468 | 91.06323 | 23067 ft | 355 kts | 240° |
| 2026-04-28 10:01 | 29.60332 | 91.01983 | 22122 ft | 355 kts | 222° |
| 2026-04-28 10:01 | 29.56103 | 90.99067 | 21260 ft | 355 kts | 205° |
| 2026-04-28 10:01 | 29.51597 | 90.96797 | 20425 ft | 352 kts | 205° |
| 2026-04-28 10:02 | 29.47049 | 90.94490 | 18954 ft | 369 kts | 205° |
| 2026-04-28 10:02 | 29.43612 | 90.92751 | 17739 ft | 371 kts | 204° |
| 2026-04-28 10:02 | 29.41318 | 90.91591 | 17524 ft | 349 kts | 206° |
| 2026-04-28 10:02 | 29.39327 | 90.90135 | 16863 ft | 335 kts | 225° |
| 2026-04-28 10:03 | 29.38020 | 90.88040 | 16267 ft | 313 kts | 247° |
| 2026-04-28 10:03 | 29.37481 | 90.85759 | 16117 ft | 283 kts | 265° |
| 2026-04-28 10:03 | 29.37376 | 90.83593 | 15938 ft | 266 kts | 266° |
| 2026-04-28 10:03 | 29.37171 | 90.81544 | 15599 ft | 249 kts | 262° |
| 2026-04-28 10:04 | 29.36864 | 90.79672 | 15296 ft | 228 kts | 258° |
| 2026-04-28 10:04 | 29.36491 | 90.77996 | 15022 ft | 207 kts | 254° |
| 2026-04-28 10:04 | 29.35852 | 90.76599 | 14759 ft | 192 kts | 230° |
| 2026-04-28 10:04 | 29.34856 | 90.75662 | 14531 ft | 182 kts | 208° |
| 2026-04-28 10:05 | 29.33663 | 90.75231 | 14379 ft | 181 kts | 186° |
| 2026-04-28 10:05 | 29.32417 | 90.75337 | 14252 ft | 180 kts | 163° |
| 2026-04-28 10:05 | 29.31294 | 90.75962 | 14006 ft | 181 kts | 141° |
| 2026-04-28 10:05 | 29.30454 | 90.77007 | 13636 ft | 177 kts | 119° |
| 2026-04-28 10:06 | 29.30016 | 90.78305 | 13348 ft | 175 kts | 98° |
| 2026-04-28 10:06 | 29.29974 | 90.79688 | 13125 ft | 174 kts | 86° |
| 2026-04-28 10:06 | 29.30000 | 90.81073 | 12916 ft | 175 kts | 86° |
| 2026-04-28 10:06 | 29.30041 | 90.82480 | 12659 ft | 174 kts | 88° |
| 2026-04-28 10:07 | 29.30023 | 90.83864 | 12477 ft | 173 kts | 89° |
| 2026-04-28 10:07 | 29.30043 | 90.85245 | 12206 ft | 173 kts | 85° |
| 2026-04-28 10:07 | 29.30072 | 90.86620 | 11911 ft | 172 kts | 86° |
| 2026-04-28 10:07 | 29.30098 | 90.87972 | 11654 ft | 170 kts | 88° |
| 2026-04-28 10:08 | 29.30121 | 90.89325 | 11471 ft | 169 kts | 87° |
| 2026-04-28 10:08 | 29.30140 | 90.90546 | 11446 ft | 133 kts | 87° |
| 2026-04-28 10:08 | 29.30153 | 90.91408 | 11434 ft | 83 kts | 89° |
| 2026-04-28 10:08 | 29.30160 | 90.91857 | 11447 ft | 29 kts | 90° |
| 2026-04-28 10:09 | 29.30107 | 90.92000 | 11443 ft | 17 kts | 113° |
| 2026-04-28 10:09 | 29.30058 | 90.92122 | 11443 ft | 16 kts | 135° |